Time;durP1;ratioP1;P1;durP2;ratioP2;P2;SDS_P1;SDS_P2;PMS_P1;PMS_P2;Temp;Humidity;BMP_temperature;BMP_pressure;BME280_temperature;BME280_humidity;BME280_pressure;Samples;Min_cycle;Max_cycle;Signal;HPM_P1;HPM_P2
2023/12/12 00:00:35;;;;;;;45.75;28.88;;;8.70;99.90;;;;;;5135576;27;20327;-71
2023/12/12 00:03:01;;;;;;;36.42;23.30;;;8.70;99.90;;;;;;5135687;27;20027;-71
2023/12/12 00:05:26;;;;;;;30.42;17.77;;;8.70;99.90;;;;;;5126588;27;20066;-71
2023/12/12 00:07:52;;;;;;;27.30;15.30;;;8.70;99.90;;;;;;5115898;27;20055;-71
2023/12/12 00:10:18;;;;;;;26.08;16.50;;;8.70;99.90;;;;;;5118449;27;20096;-71
2023/12/12 00:12:44;;;;;;;33.38;20.52;;;8.70;99.90;;;;;;5128584;27;20027;-71
2023/12/12 00:15:11;;;;;;;29.08;16.98;;;8.80;99.90;;;;;;5135144;27;20373;-71
2023/12/12 00:17:39;;;;;;;35.22;19.02;;;8.70;99.90;;;;;;5134734;27;20038;-70
2023/12/12 00:20:09;;;;;;;30.25;17.42;;;8.60;99.90;;;;;;5133255;27;20099;-70
2023/12/12 00:22:36;;;;;;;27.77;16.50;;;8.60;99.90;;;;;;5124957;27;20027;-71
2023/12/12 00:25:02;;;;;;;34.22;20.48;;;8.60;99.90;;;;;;5133206;27;20723;-72
2023/12/12 00:27:28;;;;;;;32.50;19.98;;;8.60;99.90;;;;;;5115473;27;20050;-72
2023/12/12 00:29:55;;;;;;;34.60;19.77;;;8.70;99.90;;;;;;5123068;27;20024;-72
2023/12/12 00:32:21;;;;;;;39.25;23.08;;;8.70;99.90;;;;;;5119226;27;20031;-71
2023/12/12 00:34:46;;;;;;;37.63;24.77;;;8.60;99.90;;;;;;5114397;27;20039;-71
2023/12/12 00:37:12;;;;;;;40.55;27.02;;;8.60;99.90;;;;;;5115326;27;20111;-72
2023/12/12 00:39:39;;;;;;;34.63;22.70;;;8.60;99.90;;;;;;5078087;27;20023;-71
2023/12/12 00:42:05;;;;;;;35.17;22.63;;;8.50;99.90;;;;;;5113237;28;20119;-71
2023/12/12 00:44:33;;;;;;;39.80;24.67;;;8.50;99.90;;;;;;5130912;27;20019;-72
2023/12/12 00:46:59;;;;;;;33.63;21.17;;;8.50;99.90;;;;;;5133839;27;20502;-72
2023/12/12 00:49:25;;;;;;;27.15;17.23;;;8.50;99.90;;;;;;5134363;27;20102;-72
2023/12/12 00:51:51;;;;;;;25.70;15.40;;;8.40;99.90;;;;;;5134564;27;20027;-71
2023/12/12 00:54:16;;;;;;;29.13;17.15;;;8.40;99.90;;;;;;5134427;27;20466;-71
2023/12/12 00:56:44;;;;;;;28.45;16.92;;;8.50;99.90;;;;;;5134877;27;20439;-72
2023/12/12 00:59:10;;;;;;;33.60;21.23;;;8.50;99.90;;;;;;5133773;27;20363;-70
2023/12/12 01:01:35;;;;;;;39.10;26.92;;;8.50;99.90;;;;;;5134719;27;20027;-71
2023/12/12 01:04:01;;;;;;;32.13;20.15;;;8.50;99.90;;;;;;5134177;27;20072;-71
2023/12/12 01:06:27;;;;;;;33.03;20.50;;;8.50;99.90;;;;;;5130777;27;20035;-71
2023/12/12 01:08:54;;;;;;;31.17;20.23;;;8.40;99.90;;;;;;5130691;27;20026;-72
2023/12/12 01:11:19;;;;;;;37.33;21.98;;;8.40;99.90;;;;;;5104994;28;20035;-71
2023/12/12 01:13:46;;;;;;;34.28;22.63;;;8.40;99.90;;;;;;5117296;27;20100;-71
2023/12/12 01:16:12;;;;;;;28.88;17.75;;;8.40;99.90;;;;;;5133956;27;20050;-72
2023/12/12 01:18:38;;;;;;;39.17;24.20;;;8.20;99.90;;;;;;5124818;27;20032;-71
2023/12/12 01:21:05;;;;;;;29.02;16.67;;;8.10;99.90;;;;;;5132254;27;20374;-71
2023/12/12 01:23:52;;;;;;;24.52;14.63;;;8.10;99.90;;;;;;5131286;27;20023;-72
2023/12/12 01:26:19;;;;;;;26.23;15.25;;;8.10;99.90;;;;;;5133534;27;20064;-71
2023/12/12 01:28:45;;;;;;;23.58;14.63;;;7.90;99.90;;;;;;5133901;27;20118;-71
2023/12/12 01:31:12;;;;;;;19.13;12.00;;;8.00;99.90;;;;;;5129775;27;20034;-71
2023/12/12 01:33:38;;;;;;;21.35;13.98;;;7.80;99.90;;;;;;5133740;27;20554;-71
2023/12/12 01:36:04;;;;;;;21.70;13.80;;;7.70;99.90;;;;;;5133370;27;20106;-71
2023/12/12 01:38:33;;;;;;;20.77;14.63;;;7.70;99.90;;;;;;5133805;27;20027;-71
2023/12/12 01:40:59;;;;;;;20.17;14.30;;;7.50;99.90;;;;;;5133204;27;20031;-71
2023/12/12 01:43:26;;;;;;;20.83;12.88;;;7.50;99.90;;;;;;5133610;27;20473;-70
2023/12/12 01:45:55;;;;;;;22.13;13.65;;;7.50;99.90;;;;;;5133538;27;20023;-71
2023/12/12 01:48:23;;;;;;;23.77;14.38;;;7.50;99.90;;;;;;5132636;27;20083;-71
2023/12/12 01:50:50;;;;;;;27.80;15.93;;;7.60;99.90;;;;;;5133316;27;20023;-71
2023/12/12 01:53:19;;;;;;;28.52;17.95;;;7.60;99.90;;;;;;5133538;27;20023;-70
2023/12/12 01:55:46;;;;;;;31.00;18.30;;;7.70;99.90;;;;;;5132366;27;20022;-71
2023/12/12 01:58:13;;;;;;;40.05;21.02;;;7.70;99.90;;;;;;5114700;27;20088;-71
2023/12/12 02:00:39;;;;;;;51.20;26.80;;;7.70;99.90;;;;;;5132535;27;20033;-71
2023/12/12 02:03:05;;;;;;;33.45;18.88;;;7.70;99.90;;;;;;5115039;27;20457;-71
2023/12/12 02:05:31;;;;;;;29.05;17.27;;;7.60;99.90;;;;;;5132664;27;20038;-73
2023/12/12 02:07:58;;;;;;;29.30;18.42;;;7.60;99.90;;;;;;5124834;27;20070;-70
2023/12/12 02:10:24;;;;;;;24.33;16.42;;;7.60;99.90;;;;;;5132735;27;20020;-70
2023/12/12 02:12:50;;;;;;;29.75;20.48;;;7.70;99.90;;;;;;5133030;27;20075;-70
2023/12/12 02:15:16;;;;;;;32.65;20.67;;;7.70;99.90;;;;;;5133351;27;20106;-72
2023/12/12 02:17:42;;;;;;;33.13;21.13;;;7.70;99.90;;;;;;5132679;27;20027;-71
2023/12/12 02:20:08;;;;;;;28.85;18.73;;;7.80;99.90;;;;;;5132736;27;20015;-70
2023/12/12 02:22:34;;;;;;;30.17;18.92;;;7.80;99.90;;;;;;5132700;27;20035;-70
2023/12/12 02:25:00;;;;;;;40.70;28.00;;;7.80;99.90;;;;;;5132696;27;20030;-70
2023/12/12 02:27:26;;;;;;;42.53;27.67;;;7.80;99.90;;;;;;5132737;27;20038;-70
2023/12/12 02:29:52;;;;;;;38.35;25.33;;;7.80;99.90;;;;;;5132300;27;20019;-71
2023/12/12 02:32:19;;;;;;;40.67;24.15;;;7.70;99.90;;;;;;5132419;27;20023;-70
2023/12/12 02:34:44;;;;;;;38.25;26.83;;;7.60;99.90;;;;;;5132627;27;20482;-70
2023/12/12 02:37:10;;;;;;;37.88;24.13;;;7.60;99.90;;;;;;5132718;27;20080;-70
2023/12/12 02:39:36;;;;;;;39.75;25.73;;;7.50;99.90;;;;;;5126854;27;20027;-71
2023/12/12 02:42:02;;;;;;;37.80;28.05;;;7.50;99.90;;;;;;5093293;28;20032;-71
2023/12/12 02:44:28;;;;;;;43.90;30.65;;;7.50;99.90;;;;;;5117451;27;20470;-71
2023/12/12 02:46:54;;;;;;;75.90;53.67;;;7.40;99.90;;;;;;5121028;27;20047;-72
2023/12/12 02:49:20;;;;;;;113.30;82.15;;;7.40;99.90;;;;;;5123065;28;20019;-71
2023/12/12 02:51:46;;;;;;;68.32;48.50;;;7.30;99.90;;;;;;5122494;28;20050;-72
2023/12/12 02:54:12;;;;;;;54.47;37.22;;;7.20;99.90;;;;;;5118890;28;20038;-71
2023/12/12 02:56:37;;;;;;;49.70;34.10;;;7.20;99.90;;;;;;5121898;28;20020;-71
2023/12/12 02:59:03;;;;;;;30.10;22.17;;;7.10;99.90;;;;;;5118205;28;20023;-71
2023/12/12 03:01:29;;;;;;;39.97;27.13;;;7.00;99.90;;;;;;5129203;28;20588;-71
2023/12/12 03:03:55;;;;;;;36.05;24.77;;;6.90;99.90;;;;;;5126605;27;20031;-71
2023/12/12 03:06:21;;;;;;;36.60;24.95;;;6.80;99.90;;;;;;5130759;28;20030;-70
2023/12/12 03:08:47;;;;;;;29.17;22.33;;;6.80;99.90;;;;;;5132507;28;20035;-71
2023/12/12 03:11:13;;;;;;;35.60;24.67;;;6.70;99.90;;;;;;5114826;28;20038;-71
2023/12/12 03:13:39;;;;;;;33.47;22.38;;;6.70;99.90;;;;;;5116743;28;20172;-71
2023/12/12 03:16:05;;;;;;;41.88;28.88;;;6.70;99.90;;;;;;5124929;28;20019;-71
2023/12/12 03:18:31;;;;;;;37.60;25.98;;;6.60;99.90;;;;;;5126400;28;20031;-71
2023/12/12 03:20:56;;;;;;;32.80;23.08;;;6.60;99.90;;;;;;5126121;28;20050;-71
2023/12/12 03:23:22;;;;;;;37.83;27.15;;;6.60;99.90;;;;;;5128863;27;20023;-72
2023/12/12 03:25:48;;;;;;;106.40;33.08;;;6.60;99.90;;;;;;5122542;28;20023;-71
2023/12/12 03:28:14;;;;;;;88.95;35.42;;;6.30;99.90;;;;;;5132431;28;20096;-71
2023/12/12 03:30:40;;;;;;;109.45;32.88;;;6.30;99.90;;;;;;5131657;27;20026;-71
2023/12/12 03:33:06;;;;;;;51.85;35.72;;;6.30;99.90;;;;;;5123988;28;20027;-71
2023/12/12 03:35:32;;;;;;;40.78;29.20;;;6.20;99.90;;;;;;5124893;28;20016;-71
2023/12/12 03:37:58;;;;;;;39.83;27.88;;;6.20;99.90;;;;;;5131644;28;20099;-71
2023/12/12 03:40:23;;;;;;;41.30;30.02;;;6.30;99.90;;;;;;5124900;28;20094;-72
2023/12/12 03:42:49;;;;;;;42.67;29.45;;;6.20;99.90;;;;;;5099749;28;20070;-70
2023/12/12 03:45:15;;;;;;;71.97;28.95;;;6.20;99.90;;;;;;5117962;28;20235;-71
2023/12/12 03:47:41;;;;;;;129.40;41.55;;;6.30;99.90;;;;;;5123850;27;20035;-72
2023/12/12 03:50:07;;;;;;;54.20;37.30;;;6.20;99.90;;;;;;5131252;27;20374;-72
2023/12/12 03:52:33;;;;;;;44.33;32.85;;;6.10;99.90;;;;;;5117881;28;20024;-72
2023/12/12 03:54:59;;;;;;;46.42;31.55;;;6.10;99.90;;;;;;5120697;27;20060;-72
2023/12/12 03:57:25;;;;;;;39.53;27.17;;;6.20;99.90;;;;;;5131553;27;20023;-71
2023/12/12 03:59:51;;;;;;;34.90;25.00;;;6.10;99.90;;;;;;5135948;27;20370;-72
2023/12/12 04:02:17;;;;;;;34.45;24.52;;;6.00;99.90;;;;;;5116368;27;20023;-71
2023/12/12 04:04:43;;;;;;;38.50;26.75;;;6.00;99.90;;;;;;5127129;27;20428;-72
2023/12/12 04:07:09;;;;;;;43.70;25.25;;;5.90;99.90;;;;;;5122642;27;20115;-72
2023/12/12 04:09:35;;;;;;;61.92;28.02;;;5.90;99.90;;;;;;5128466;27;20046;-72
2023/12/12 04:12:01;;;;;;;286.00;46.78;;;5.80;99.90;;;;;;5113783;27;20035;-71
2023/12/12 04:14:26;;;;;;;74.22;39.30;;;5.80;99.90;;;;;;5135378;27;20011;-71
2023/12/12 04:16:52;;;;;;;48.47;32.88;;;5.70;99.90;;;;;;5114519;27;20490;-72
2023/12/12 04:19:18;;;;;;;53.88;29.23;;;5.70;99.90;;;;;;5120312;27;20058;-72
2023/12/12 04:21:44;;;;;;;42.95;27.63;;;5.60;99.90;;;;;;5129859;27;20064;-72
2023/12/12 04:24:10;;;;;;;43.13;29.73;;;5.60;99.90;;;;;;5119507;27;20356;-71
2023/12/12 04:26:36;;;;;;;40.35;24.95;;;5.60;99.90;;;;;;5114367;28;20035;-71
2023/12/12 04:29:04;;;;;;;50.45;28.63;;;5.60;99.90;;;;;;5119592;27;20027;-71
2023/12/12 04:31:30;;;;;;;189.13;46.75;;;5.60;99.90;;;;;;5135072;27;20062;-72
2023/12/12 04:33:56;;;;;;;73.82;38.70;;;5.40;99.90;;;;;;5131666;27;20066;-72
2023/12/12 04:36:22;;;;;;;87.15;34.38;;;5.40;99.90;;;;;;5134884;27;20463;-72
2023/12/12 04:38:48;;;;;;;73.72;23.73;;;5.40;99.90;;;;;;5134595;27;20039;-72
2023/12/12 04:41:14;;;;;;;71.10;28.40;;;5.40;99.90;;;;;;5134759;27;20090;-71
2023/12/12 04:43:40;;;;;;;40.15;26.90;;;5.30;99.90;;;;;;5134812;27;20450;-72
2023/12/12 04:46:06;;;;;;;78.18;38.38;;;5.30;99.90;;;;;;5131862;27;20390;-72
2023/12/12 04:48:32;;;;;;;53.47;31.35;;;5.20;99.90;;;;;;5123981;27;20055;-72
2023/12/12 04:51:00;;;;;;;43.83;31.30;;;5.20;99.90;;;;;;5130142;27;20382;-72
2023/12/12 04:53:25;;;;;;;45.25;30.45;;;5.20;99.90;;;;;;5115397;27;20049;-72
2023/12/12 04:55:51;;;;;;;55.17;34.70;;;5.20;99.90;;;;;;5133746;27;20457;-72
2023/12/12 04:58:17;;;;;;;58.90;40.83;;;5.30;99.90;;;;;;5109204;28;20056;-72
2023/12/12 05:00:43;;;;;;;57.85;41.05;;;5.30;99.90;;;;;;5116888;27;20348;-71
2023/12/12 05:03:09;;;;;;;60.13;40.47;;;5.40;99.90;;;;;;5124694;27;20035;-71
2023/12/12 05:05:35;;;;;;;48.58;34.63;;;5.40;99.90;;;;;;5127415;27;20019;-72
2023/12/12 05:08:01;;;;;;;48.97;31.10;;;5.30;99.90;;;;;;5124782;27;20027;-72
2023/12/12 05:10:27;;;;;;;59.70;44.13;;;5.40;99.90;;;;;;5116069;27;20027;-72
2023/12/12 05:12:53;;;;;;;65.72;43.70;;;5.30;99.90;;;;;;5115656;27;20026;-72
2023/12/12 05:15:19;;;;;;;62.53;40.03;;;5.40;99.90;;;;;;5127241;27;20076;-72
2023/12/12 05:17:45;;;;;;;62.58;43.83;;;5.40;99.90;;;;;;5121601;27;20066;-72
2023/12/12 05:20:12;;;;;;;56.25;38.40;;;5.50;99.90;;;;;;5133598;27;20028;-72
2023/12/12 05:22:38;;;;;;;62.28;41.50;;;5.50;99.90;;;;;;5124637;27;20023;-72
2023/12/12 05:25:05;;;;;;;62.60;44.25;;;5.40;99.90;;;;;;5133664;27;20039;-72
2023/12/12 05:27:31;;;;;;;61.35;41.95;;;5.40;99.90;;;;;;5133745;27;20383;-72
2023/12/12 05:29:57;;;;;;;65.78;42.78;;;5.40;99.90;;;;;;5127303;27;20027;-72
2023/12/12 05:32:23;;;;;;;66.85;45.60;;;5.30;99.90;;;;;;5112965;28;20092;-72
2023/12/12 05:34:49;;;;;;;60.97;40.70;;;5.20;99.90;;;;;;5101302;27;20035;-72
2023/12/12 05:37:15;;;;;;;70.60;39.60;;;5.20;99.90;;;;;;5124837;27;20026;-73
2023/12/12 05:39:40;;;;;;;55.15;38.65;;;5.10;99.90;;;;;;5102317;27;20153;-73
2023/12/12 05:42:07;;;;;;;56.42;38.20;;;5.10;99.90;;;;;;5114011;27;20028;-72
2023/12/12 05:44:33;;;;;;;58.33;40.33;;;5.10;99.90;;;;;;5111960;27;20475;-73
2023/12/12 05:46:58;;;;;;;59.78;42.47;;;5.00;99.90;;;;;;5122874;27;20046;-72
2023/12/12 05:49:24;;;;;;;62.08;41.42;;;5.00;99.90;;;;;;5133036;27;20046;-73
2023/12/12 05:51:50;;;;;;;58.08;39.97;;;5.00;99.90;;;;;;5097605;28;20502;-73
2023/12/12 05:54:17;;;;;;;64.72;41.35;;;4.90;99.90;;;;;;5124749;27;20550;-73
2023/12/12 05:56:45;;;;;;;147.38;96.05;;;4.90;99.90;;;;;;5121167;27;20035;-73
2023/12/12 05:59:14;;;;;;;82.20;49.10;;;4.90;99.90;;;;;;5131096;27;20019;-72
2023/12/12 06:01:41;;;;;;;70.50;46.55;;;4.90;99.90;;;;;;5132046;27;20509;-73
2023/12/12 06:04:11;;;;;;;54.78;36.88;;;4.90;99.90;;;;;;5112543;27;20073;-73
2023/12/12 06:06:41;;;;;;;60.22;39.53;;;4.90;99.90;;;;;;5115936;27;20024;-71
2023/12/12 06:09:09;;;;;;;44.83;32.72;;;5.00;99.90;;;;;;5119796;27;20076;-72
2023/12/12 06:11:36;;;;;;;43.38;31.10;;;5.00;99.90;;;;;;5126304;27;20021;-72
2023/12/12 06:14:03;;;;;;;72.13;38.70;;;5.00;99.90;;;;;;5110546;27;20099;-72
2023/12/12 06:16:33;;;;;;;160.70;86.72;;;5.00;99.90;;;;;;5126146;27;20086;-72
2023/12/12 06:18:59;;;;;;;235.43;75.65;;;5.00;99.90;;;;;;5120082;27;20023;-72
2023/12/12 06:21:25;;;;;;;251.82;95.57;;;4.90;99.90;;;;;;5132718;27;20019;-72
2023/12/12 06:23:51;;;;;;;76.60;50.15;;;4.90;99.90;;;;;;5114607;27;20179;-72
2023/12/12 06:26:17;;;;;;;70.75;40.92;;;4.80;99.90;;;;;;5132675;27;20031;-72
2023/12/12 06:28:43;;;;;;;55.35;30.63;;;4.80;99.90;;;;;;5132939;27;20039;-72
2023/12/12 06:31:09;;;;;;;52.25;36.03;;;4.80;99.90;;;;;;5119909;27;20313;-72
2023/12/12 06:33:35;;;;;;;54.80;40.70;;;5.00;99.90;;;;;;5120871;27;20026;-71
2023/12/12 06:36:01;;;;;;;92.47;67.07;;;5.00;99.90;;;;;;5132509;27;20055;-74
2023/12/12 06:38:26;;;;;;;88.78;57.53;;;5.10;99.90;;;;;;5129933;27;20384;-73
2023/12/12 06:40:52;;;;;;;67.25;48.90;;;5.10;99.90;;;;;;5113895;28;20069;-74
2023/12/12 06:43:18;;;;;;;83.50;56.50;;;5.10;99.90;;;;;;5132429;27;20284;-72
2023/12/12 06:45:44;;;;;;;40.17;29.67;;;5.20;99.90;;;;;;5117961;27;20027;-72
2023/12/12 06:48:12;;;;;;;40.15;28.90;;;5.30;99.90;;;;;;5127690;27;20062;-72
2023/12/12 06:50:38;;;;;;;48.92;39.08;;;5.20;99.90;;;;;;5130616;28;20034;-72
2023/12/12 06:53:04;;;;;;;57.20;40.22;;;5.20;99.90;;;;;;5112054;28;20032;-72
2023/12/12 06:55:30;;;;;;;67.38;45.72;;;5.30;99.90;;;;;;5095646;28;20467;-72
2023/12/12 06:57:57;;;;;;;58.70;38.95;;;5.40;99.90;;;;;;5123316;28;20031;-72
2023/12/12 07:00:24;;;;;;;55.80;34.55;;;5.40;99.90;;;;;;5120521;28;20027;-72
2023/12/12 07:02:50;;;;;;;42.65;26.75;;;5.50;99.90;;;;;;5113773;27;20067;-71
2023/12/12 07:05:16;;;;;;;32.03;21.70;;;5.30;99.90;;;;;;5116414;28;20024;-74
2023/12/12 07:07:43;;;;;;;38.08;25.42;;;5.20;99.90;;;;;;5126326;28;20776;-74
2023/12/12 07:10:09;;;;;;;31.30;20.13;;;4.90;99.90;;;;;;5119184;28;20031;-74
2023/12/12 07:12:35;;;;;;;34.10;19.80;;;4.90;99.90;;;;;;5119901;28;20032;-74
2023/12/12 07:15:01;;;;;;;33.28;24.00;;;4.90;99.90;;;;;;5113107;28;20027;-74
2023/12/12 07:17:27;;;;;;;37.33;28.05;;;5.20;99.90;;;;;;5116287;28;20443;-74
2023/12/12 07:19:53;;;;;;;40.38;33.22;;;5.30;99.90;;;;;;5126200;28;20020;-74
2023/12/12 07:22:19;;;;;;;42.90;33.33;;;5.50;99.90;;;;;;5125847;28;20030;-74
2023/12/12 07:24:45;;;;;;;42.40;30.65;;;5.70;99.90;;;;;;5120434;28;20020;-74
2023/12/12 07:27:10;;;;;;;38.28;30.33;;;5.80;99.90;;;;;;5130540;28;20118;-74
2023/12/12 07:29:36;;;;;;;38.95;27.55;;;5.90;99.90;;;;;;5120644;27;20023;-74
2023/12/12 07:32:02;;;;;;;43.58;33.05;;;6.10;99.90;;;;;;5108667;27;20390;-74
2023/12/12 07:34:28;;;;;;;39.00;32.33;;;6.10;99.90;;;;;;5126595;27;20439;-74
2023/12/12 07:36:54;;;;;;;47.72;38.42;;;6.20;99.90;;;;;;5124920;27;20118;-74
2023/12/12 07:39:20;;;;;;;43.85;35.88;;;6.30;99.90;;;;;;5131666;27;20031;-73
2023/12/12 07:41:46;;;;;;;42.05;33.42;;;6.50;99.90;;;;;;5105082;27;20023;-73
2023/12/12 07:44:12;;;;;;;41.97;34.95;;;6.60;99.90;;;;;;5133205;27;20493;-74
2023/12/12 07:46:38;;;;;;;55.58;39.80;;;6.80;99.90;;;;;;5123144;27;20471;-74
2023/12/12 07:49:06;;;;;;;55.45;44.42;;;6.80;99.90;;;;;;5127542;27;20039;-74
2023/12/12 07:51:32;;;;;;;65.75;45.22;;;6.70;99.90;;;;;;5130081;27;20020;-74
2023/12/12 07:54:01;;;;;;;72.70;46.75;;;6.50;99.90;;;;;;5112899;27;20027;-73
2023/12/12 07:56:27;;;;;;;61.00;41.53;;;6.70;99.90;;;;;;5135828;27;20035;-74
2023/12/12 07:58:53;;;;;;;42.15;32.58;;;6.80;99.90;;;;;;5135736;27;20023;-73
2023/12/12 08:01:19;;;;;;;38.25;26.90;;;7.00;99.90;;;;;;5129397;27;20020;-73
2023/12/12 08:03:45;;;;;;;40.17;28.52;;;7.20;99.90;;;;;;5131916;27;20059;-73
2023/12/12 08:06:10;;;;;;;35.38;24.55;;;7.30;99.90;;;;;;5135375;27;20134;-74
2023/12/12 08:08:36;;;;;;;32.40;20.08;;;7.20;99.90;;;;;;5135620;27;20028;-73
2023/12/12 08:11:02;;;;;;;46.00;33.05;;;7.20;99.90;;;;;;5135326;27;20027;-74
2023/12/12 08:13:30;;;;;;;40.78;30.92;;;7.20;99.90;;;;;;5117096;27;20132;-73
2023/12/12 08:15:57;;;;;;;33.83;21.67;;;7.30;99.90;;;;;;5135349;27;20031;-74
2023/12/12 08:18:23;;;;;;;28.23;20.30;;;7.20;99.90;;;;;;5119767;27;20030;-73
2023/12/12 08:20:49;;;;;;;28.83;22.42;;;7.00;99.90;;;;;;5125158;27;20115;-73
2023/12/12 08:23:15;;;;;;;36.17;22.35;;;7.30;99.90;;;;;;5091565;27;20490;-73
2023/12/12 08:25:41;;;;;;;30.85;23.20;;;7.40;99.90;;;;;;5130778;27;20519;-74
2023/12/12 08:28:08;;;;;;;28.83;21.35;;;7.50;99.90;;;;;;5122820;27;20035;-74
2023/12/12 08:30:35;;;;;;;33.35;24.05;;;7.60;99.90;;;;;;5125016;27;20478;-74
2023/12/12 08:33:01;;;;;;;35.55;24.90;;;7.70;99.90;;;;;;5103584;28;20024;-74
2023/12/12 08:35:27;;;;;;;36.70;27.23;;;7.80;99.90;;;;;;5125711;27;20541;-73
2023/12/12 08:37:53;;;;;;;38.38;28.50;;;7.90;99.90;;;;;;5115911;27;20031;-73
2023/12/12 08:40:19;;;;;;;51.45;37.10;;;8.10;99.90;;;;;;5131760;27;20035;-74
2023/12/12 08:42:45;;;;;;;69.25;41.25;;;8.40;99.90;;;;;;5125440;27;20047;-73
2023/12/12 08:45:11;;;;;;;62.40;42.20;;;8.60;99.90;;;;;;5133567;27;20024;-74
2023/12/12 08:47:37;;;;;;;66.93;52.47;;;8.80;99.90;;;;;;5123282;27;20557;-74
2023/12/12 08:50:04;;;;;;;35.72;25.60;;;9.00;99.90;;;;;;5122244;27;20458;-73
2023/12/12 08:52:33;;;;;;;39.65;27.38;;;9.00;99.90;;;;;;5112522;27;20054;-74
2023/12/12 08:54:58;;;;;;;42.40;22.75;;;9.10;99.90;;;;;;5123931;27;20069;-74
2023/12/12 08:57:24;;;;;;;32.55;22.55;;;9.10;99.90;;;;;;5120634;27;20023;-74
2023/12/12 08:59:51;;;;;;;28.75;20.08;;;9.20;99.90;;;;;;5115239;27;20101;-73
2023/12/12 09:02:17;;;;;;;26.23;18.80;;;9.40;99.90;;;;;;5120235;27;20027;-73
2023/12/12 09:04:43;;;;;;;25.63;18.50;;;9.40;99.90;;;;;;5128396;27;20026;-74
2023/12/12 09:07:09;;;;;;;26.98;19.02;;;9.70;99.90;;;;;;5129159;27;20473;-73
2023/12/12 09:09:35;;;;;;;28.40;19.55;;;9.90;99.90;;;;;;5130588;27;20168;-74
2023/12/12 09:12:01;;;;;;;32.00;21.40;;;9.90;99.90;;;;;;5124509;27;20030;-73
2023/12/12 09:14:27;;;;;;;37.65;23.17;;;10.20;99.90;;;;;;5127324;27;20035;-73
2023/12/12 09:16:53;;;;;;;51.05;38.53;;;10.30;99.90;;;;;;5124288;27;20526;-73
2023/12/12 09:19:19;;;;;;;29.75;19.52;;;10.50;99.90;;;;;;5116208;27;20027;-74
2023/12/12 09:21:45;;;;;;;26.05;17.27;;;10.50;99.90;;;;;;5121183;27;20053;-74
2023/12/12 09:24:13;;;;;;;31.20;18.45;;;10.70;99.90;;;;;;5122329;27;20098;-74
2023/12/12 09:26:38;;;;;;;28.02;17.83;;;10.80;99.90;;;;;;5127163;27;20042;-74
2023/12/12 09:29:04;;;;;;;27.75;18.73;;;10.90;99.90;;;;;;5133296;27;20042;-73
2023/12/12 09:31:30;;;;;;;33.58;20.92;;;11.10;99.90;;;;;;5122105;27;20055;-73
2023/12/12 09:33:56;;;;;;;27.80;17.85;;;11.10;99.90;;;;;;5115523;27;20023;-73
2023/12/12 09:36:22;;;;;;;24.70;17.05;;;11.30;99.90;;;;;;5126074;27;20075;-73
2023/12/12 09:38:48;;;;;;;21.90;13.90;;;11.40;99.90;;;;;;5122251;27;20054;-73
2023/12/12 09:41:22;;;;;;;18.67;12.65;;;11.50;99.90;;;;;;5118100;27;20020;-74
2023/12/12 09:43:50;;;;;;;19.95;12.18;;;11.40;99.90;;;;;;5119985;27;20032;-74
2023/12/12 09:46:17;;;;;;;22.73;14.07;;;11.30;99.90;;;;;;5116972;27;20043;-74
2023/12/12 09:48:48;;;;;;;22.92;14.40;;;11.40;99.90;;;;;;5119218;27;20472;-74
2023/12/12 09:51:17;;;;;;;19.75;13.00;;;11.30;99.90;;;;;;5117770;27;20045;-73
2023/12/12 09:53:46;;;;;;;19.63;12.27;;;11.40;99.90;;;;;;5117738;27;20431;-74
2023/12/12 09:56:16;;;;;;;20.52;12.00;;;11.70;99.90;;;;;;5130115;27;20027;-73
2023/12/12 09:58:48;;;;;;;17.42;9.05;;;11.80;99.90;;;;;;5127531;27;20030;-73
2023/12/12 10:01:15;;;;;;;15.53;9.40;;;12.00;99.90;;;;;;5083630;28;20032;-73
2023/12/12 10:03:41;;;;;;;17.40;9.75;;;12.00;99.90;;;;;;5120717;27;20043;-73
2023/12/12 10:06:12;;;;;;;18.70;11.00;;;12.10;99.90;;;;;;5109074;27;20440;-73
2023/12/12 10:08:40;;;;;;;16.48;9.73;;;12.30;99.90;;;;;;5120246;27;20092;-74
2023/12/12 10:11:09;;;;;;;15.90;9.80;;;12.30;99.90;;;;;;5112847;28;20046;-74
2023/12/12 10:13:48;;;;;;;20.65;11.30;;;12.40;99.90;;;;;;5115291;27;20032;-74
2023/12/12 10:16:14;;;;;;;19.88;11.07;;;12.60;99.90;;;;;;5121520;27;20378;-74
2023/12/12 10:18:40;;;;;;;17.10;9.32;;;12.70;99.90;;;;;;5098421;27;20404;-74
2023/12/12 10:21:23;;;;;;;16.67;9.75;;;12.70;99.90;;;;;;5111090;28;20084;-74
2023/12/12 10:23:53;;;;;;;15.70;9.18;;;12.90;99.90;;;;;;5120436;27;20440;-73
2023/12/12 10:26:29;;;;;;;17.23;10.88;;;13.10;99.90;;;;;;5111946;27;20371;-73
2023/12/12 10:28:56;;;;;;;18.20;7.95;;;13.30;99.90;;;;;;5113173;27;20362;-71
2023/12/12 10:31:23;;;;;;;15.18;5.25;;;13.30;99.90;;;;;;5131234;27;20015;-71
2023/12/12 10:33:50;;;;;;;9.23;5.15;;;13.30;99.90;;;;;;5112009;27;20024;-71
2023/12/12 10:36:16;;;;;;;10.68;5.95;;;13.30;99.90;;;;;;5110577;28;20022;-72
2023/12/12 10:38:42;;;;;;;9.82;4.65;;;13.40;99.90;;;;;;5096897;28;20027;-72
2023/12/12 10:41:16;;;;;;;6.78;3.40;;;13.40;99.90;;;;;;5127707;27;21101;-72
2023/12/12 10:43:44;;;;;;;8.73;5.28;;;13.60;99.90;;;;;;5112346;27;20059;-71
2023/12/12 10:46:18;;;;;;;9.68;5.10;;;13.70;99.90;;;;;;5122618;27;20109;-73
2023/12/12 10:48:52;;;;;;;8.02;4.13;;;13.70;99.90;;;;;;5126376;27;20046;-72
2023/12/12 10:51:18;;;;;;;16.08;9.80;;;13.80;99.90;;;;;;5113795;28;20050;-72
2023/12/12 10:53:47;;;;;;;12.88;5.70;;;13.70;99.90;;;;;;5116619;27;20024;-71
2023/12/12 10:56:14;;;;;;;10.45;5.47;;;13.80;99.90;;;;;;5126047;27;20032;-72
2023/12/12 10:58:44;;;;;;;10.27;6.07;;;13.90;99.90;;;;;;5110592;28;20784;-73
2023/12/12 11:01:14;;;;;;;12.15;5.85;;;13.80;99.90;;;;;;5107697;28;20038;-72
2023/12/12 11:03:43;;;;;;;15.65;8.15;;;13.50;99.90;;;;;;5112224;28;20020;-72
2023/12/12 11:06:10;;;;;;;11.98;5.78;;;13.70;99.90;;;;;;5122456;27;20078;-73
2023/12/12 11:08:36;;;;;;;14.25;6.05;;;13.60;99.90;;;;;;5130744;27;20114;-72
2023/12/12 11:11:21;;;;;;;14.02;6.45;;;13.60;99.90;;;;;;5105073;27;20505;-72
2023/12/12 11:13:47;;;;;;;10.93;6.03;;;13.60;99.90;;;;;;5114346;27;20108;-72
2023/12/12 11:16:13;;;;;;;11.05;4.90;;;13.60;99.90;;;;;;5113974;28;20019;-72
2023/12/12 11:18:43;;;;;;;8.90;4.63;;;13.50;99.90;;;;;;5114616;28;20055;-72
2023/12/12 11:21:29;;;;;;;14.13;7.82;;;13.40;99.90;;;;;;5107143;28;20039;-72
2023/12/12 11:23:55;;;;;;;15.00;7.10;;;13.50;99.90;;;;;;5133068;27;20067;-72
2023/12/12 11:26:24;;;;;;;12.43;5.50;;;13.70;99.90;;;;;;5121623;27;20016;-72
2023/12/12 11:28:52;;;;;;;11.02;5.65;;;13.70;99.90;;;;;;5118192;27;20064;-73
2023/12/12 11:31:26;;;;;;;9.70;4.72;;;13.60;99.90;;;;;;5112942;27;20471;-72
2023/12/12 11:34:10;;;;;;;6.65;3.75;;;13.90;99.90;;;;;;5135660;27;20038;-72
2023/12/12 11:36:59;;;;;;;11.25;5.28;;;14.00;99.90;;;;;;5135864;27;20023;-72
2023/12/12 11:39:36;;;;;;;6.53;3.33;;;14.10;99.90;;;;;;5135349;27;20359;-73
2023/12/12 11:42:15;;;;;;;9.07;4.38;;;14.10;99.90;;;;;;5135813;27;20027;-73
2023/12/12 11:44:57;;;;;;;6.97;3.75;;;14.10;99.90;;;;;;5135344;27;20023;-75
2023/12/12 11:47:29;;;;;;;11.20;5.60;;;14.20;99.90;;;;;;5135391;27;20513;-72
2023/12/12 11:50:11;;;;;;;10.93;5.47;;;14.30;99.90;;;;;;5117023;27;20043;-72
2023/12/12 11:52:37;;;;;;;8.25;3.50;;;14.20;99.90;;;;;;5121655;27;20023;-72
2023/12/12 11:55:03;;;;;;;7.20;3.08;;;14.20;99.90;;;;;;5135788;27;20035;-72
2023/12/12 11:57:29;;;;;;;8.82;3.58;;;14.20;99.90;;;;;;5135633;27;20046;-72
2023/12/12 11:59:56;;;;;;;13.00;5.97;;;14.10;99.90;;;;;;5135373;27;20372;-73
2023/12/12 12:02:22;;;;;;;9.23;5.50;;;14.20;99.90;;;;;;5117122;27;20035;-74
2023/12/12 12:04:48;;;;;;;10.80;5.53;;;14.00;99.90;;;;;;5135433;27;20327;-74
2023/12/12 12:07:13;;;;;;;9.00;4.13;;;14.10;99.90;;;;;;5134997;27;20026;-72
2023/12/12 12:09:41;;;;;;;10.27;4.28;;;14.30;99.90;;;;;;5135402;27;20386;-72
2023/12/12 12:12:10;;;;;;;7.80;3.50;;;14.40;99.90;;;;;;5135234;27;20485;-73
2023/12/12 12:14:36;;;;;;;16.83;5.50;;;14.60;99.90;;;;;;5135069;27;20027;-74
2023/12/12 12:17:02;;;;;;;11.40;5.10;;;14.50;99.90;;;;;;5129516;27;20348;-72
2023/12/12 12:19:30;;;;;;;4.57;2.63;;;14.60;99.90;;;;;;5126252;27;20065;-74
2023/12/12 12:22:08;;;;;;;10.23;4.18;;;14.60;99.90;;;;;;5135035;27;20025;-74
2023/12/12 12:24:44;;;;;;;6.93;4.05;;;14.50;99.90;;;;;;5134759;27;20065;-74
2023/12/12 12:27:10;;;;;;;9.57;4.90;;;14.50;99.90;;;;;;5134860;27;20023;-72
2023/12/12 12:29:36;;;;;;;10.52;5.57;;;14.50;99.90;;;;;;5134627;27;20034;-74
2023/12/12 12:32:14;;;;;;;12.52;4.90;;;14.50;99.90;;;;;;5134826;27;20019;-73
2023/12/12 12:34:40;;;;;;;11.20;4.30;;;14.50;99.90;;;;;;5134784;27;20057;-72